createdAt,value
2023-01-19T00:07:23.939Z,101640.13
2023-01-19T00:17:26.701Z,101638.50
2023-01-19T00:27:35.115Z,101636.84
2023-01-19T00:37:38.149Z,101634.56
2023-01-19T00:47:43.094Z,101631.19
2023-01-19T00:57:45.898Z,101628.75
2023-01-19T01:07:50.982Z,101624.81
2023-01-19T01:17:54.008Z,101620.88
2023-01-19T01:27:58.247Z,101615.19
2023-01-19T01:38:01.519Z,101611.78
2023-01-19T01:48:10.523Z,101608.63
2023-01-19T01:58:16.685Z,101605.31
2023-01-19T02:08:45.804Z,101600.75
2023-01-19T02:18:48.741Z,101597.78
2023-01-19T02:28:57.866Z,101595.34
2023-01-19T02:39:02.393Z,101589.78
2023-01-19T02:49:06.823Z,101587.31
2023-01-19T02:59:18.057Z,101584.75
2023-01-19T03:09:29.947Z,101582.41
2023-01-19T03:19:36.302Z,101579.13
2023-01-19T03:29:43.841Z,101574.47
2023-01-19T03:39:46.744Z,101572.31
2023-01-19T03:49:53.343Z,101569.47
2023-01-19T03:59:57.301Z,101567.81
2023-01-19T04:10:01.820Z,101561.41
2023-01-19T04:20:06.312Z,101560.16
2023-01-19T04:30:11.899Z,101558.16
2023-01-19T04:40:15.055Z,101555.56
2023-01-19T04:50:19.820Z,101549.50
2023-01-19T05:00:23.726Z,101546.94
2023-01-19T05:10:28.451Z,101545.22
2023-01-19T05:20:31.290Z,101538.06
2023-01-19T05:30:38.944Z,101538.19
2023-01-19T05:40:42.695Z,101537.72
2023-01-19T05:50:49.716Z,101535.22
2023-01-19T06:00:52.710Z,101532.94
2023-01-19T06:10:57.586Z,101530.34
2023-01-19T06:21:04.042Z,101525.84
2023-01-19T06:31:08.602Z,101524.03
2023-01-19T06:41:11.716Z,101523.09
2023-01-19T06:51:16.101Z,101520.38
2023-01-19T07:01:19.255Z,101522.34
2023-01-19T07:11:29.556Z,101521.59
2023-01-19T07:21:35.587Z,101522.06
2023-01-19T07:31:40.041Z,101522.31
2023-01-19T07:41:43.088Z,101523.06
2023-01-19T07:51:47.696Z,101523.34
2023-01-19T08:01:50.903Z,101522.38
2023-01-19T08:12:02.931Z,101518.81
2023-01-19T08:22:06.350Z,101518.69
2023-01-19T08:32:11.039Z,101516.63
2023-01-19T08:42:17.251Z,101516.06
2023-01-19T08:52:30.971Z,101510.56
2023-01-19T09:02:36.111Z,101514.16
2023-01-19T09:12:47.400Z,101507.09
2023-01-19T09:22:50.820Z,101504.50
2023-01-19T09:33:06.806Z,101499.41
2023-01-19T09:43:18.677Z,101492.84
2023-01-19T09:53:44.460Z,101489.34
2023-01-19T10:03:53.001Z,101494.50
2023-01-19T10:13:59.494Z,101498.56
2023-01-19T10:24:07.385Z,101501.56
2023-01-19T10:34:21.565Z,101501.19
2023-01-19T10:44:27.887Z,101499.47
2023-01-19T10:54:34.913Z,101502.47
2023-01-19T11:04:38.108Z,101506.66
2023-01-19T11:14:43.020Z,101505.31
2023-01-19T11:24:46.040Z,101504.09
2023-01-19T11:34:50.723Z,101501.75
2023-01-19T11:45:00.566Z,101504.94
2023-01-19T11:55:15.079Z,101513.00
2023-01-19T12:05:20.623Z,101519.78
2023-01-19T12:15:30.548Z,101525.97
2023-01-19T12:25:47.877Z,101520.78
2023-01-19T12:36:01.109Z,101525.00
2023-01-19T12:46:20.310Z,101528.53
2023-01-19T12:56:32.225Z,101530.53
2023-01-19T13:07:13.954Z,101519.81
2023-01-19T13:17:33.877Z,101524.72
2023-01-19T13:27:38.514Z,101527.28
2023-01-19T13:37:46.967Z,101532.59
2023-01-19T13:47:51.652Z,101536.81
2023-01-19T13:57:56.700Z,101540.03
2023-01-19T14:08:18.282Z,101537.75
2023-01-19T14:18:28.195Z,101534.38
2023-01-19T14:28:42.393Z,101536.06
2023-01-19T14:38:48.271Z,101540.94
2023-01-19T14:48:57.415Z,101544.09
2023-01-19T14:59:03.691Z,101542.47
2023-01-19T15:09:08.900Z,101543.94
2023-01-19T15:19:15.539Z,101549.38
2023-01-19T15:29:23.735Z,101552.09
2023-01-19T15:39:28.370Z,101550.75
2023-01-19T15:49:31.540Z,101546.84
2023-01-19T15:59:36.187Z,101550.50
2023-01-19T16:09:41.946Z,101552.16
2023-01-19T16:19:46.518Z,101547.75
2023-01-19T16:29:49.561Z,101549.50
2023-01-19T16:39:55.429Z,101551.41
2023-01-19T16:49:58.384Z,101549.03
2023-01-19T17:00:06.073Z,101545.19
2023-01-19T17:10:10.294Z,101543.59
2023-01-19T17:20:17.559Z,101545.53
2023-01-19T17:30:20.808Z,101547.31
2023-01-19T17:40:28.701Z,101548.91
2023-01-19T17:50:32.939Z,101549.56
2023-01-19T18:00:39.908Z,101548.47
2023-01-19T18:10:43.203Z,101550.28
2023-01-19T18:20:49.596Z,101552.09
2023-01-19T18:30:52.661Z,101549.69
2023-01-19T18:41:04.804Z,101544.94
2023-01-19T18:51:10.455Z,101538.00
2023-01-19T19:01:23.815Z,101538.31
2023-01-19T19:11:28.203Z,101538.56
2023-01-19T19:21:32.674Z,101534.47
2023-01-19T19:31:35.730Z,101535.84
2023-01-19T19:41:40.601Z,101533.69
2023-01-19T19:51:44.190Z,101533.88
2023-01-19T20:01:50.241Z,101533.72
2023-01-19T20:11:53.365Z,101529.88
2023-01-19T20:21:58.277Z,101528.97
2023-01-19T20:32:01.575Z,101530.78
2023-01-19T20:42:09.906Z,101532.84
2023-01-19T20:52:12.857Z,101529.19
2023-01-19T21:02:17.828Z,101529.50
2023-01-19T21:12:23.132Z,101527.00
2023-01-19T21:22:27.563Z,101529.44
2023-01-19T21:32:30.493Z,101530.91
2023-01-19T21:42:35.585Z,101532.06
2023-01-19T21:52:39.397Z,101532.91
2023-01-19T22:02:49.456Z,101533.31
2023-01-19T22:13:01.592Z,101529.69
2023-01-19T22:23:06.193Z,101530.75
2023-01-19T22:33:10.614Z,101529.81
2023-01-19T22:43:15.024Z,101528.03
2023-01-19T22:53:18.003Z,101527.78
2023-01-19T23:03:22.527Z,101525.66
2023-01-19T23:13:25.598Z,101527.56
2023-01-19T23:23:30.088Z,101530.81
2023-01-19T23:33:33.370Z,101529.75
2023-01-19T23:43:37.512Z,101533.91
2023-01-19T23:53:43.760Z,101536.69
